sensor_id;sensor_type;location;lat;lon;timestamp;P1;durP1;ratioP1;P2;durP2;ratioP2
16478;SDS011;8350;52.316;10.530;2022-10-23T00:01:37;9.25;;;6.18;;
16478;SDS011;8350;52.316;10.530;2022-10-23T00:04:09;8.80;;;6.80;;
16478;SDS011;8350;52.316;10.530;2022-10-23T00:06:38;7.40;;;6.65;;
16478;SDS011;8350;52.316;10.530;2022-10-23T00:09:09;9.43;;;7.43;;
16478;SDS011;8350;52.316;10.530;2022-10-23T00:11:38;9.45;;;6.70;;
16478;SDS011;8350;52.316;10.530;2022-10-23T00:14:07;8.20;;;6.25;;
16478;SDS011;8350;52.316;10.530;2022-10-23T00:16:34;9.60;;;6.57;;
16478;SDS011;8350;52.316;10.530;2022-10-23T00:19:02;9.13;;;6.65;;
16478;SDS011;8350;52.316;10.530;2022-10-23T00:21:32;8.48;;;6.15;;
16478;SDS011;8350;52.316;10.530;2022-10-23T00:23:59;8.10;;;7.10;;
16478;SDS011;8350;52.316;10.530;2022-10-23T00:26:26;7.25;;;6.15;;
16478;SDS011;8350;52.316;10.530;2022-10-23T00:28:53;6.88;;;5.70;;
16478;SDS011;8350;52.316;10.530;2022-10-23T00:31:23;8.35;;;5.25;;
16478;SDS011;8350;52.316;10.530;2022-10-23T00:33:51;9.52;;;6.43;;
16478;SDS011;8350;52.316;10.530;2022-10-23T00:36:24;7.88;;;6.70;;
16478;SDS011;8350;52.316;10.530;2022-10-23T00:38:53;8.65;;;6.13;;
16478;SDS011;8350;52.316;10.530;2022-10-23T00:41:24;11.05;;;6.55;;
16478;SDS011;8350;52.316;10.530;2022-10-23T00:43:55;9.63;;;6.57;;
16478;SDS011;8350;52.316;10.530;2022-10-23T00:46:29;8.57;;;6.88;;
16478;SDS011;8350;52.316;10.530;2022-10-23T00:48:56;7.60;;;5.78;;
16478;SDS011;8350;52.316;10.530;2022-10-23T00:51:25;7.63;;;6.00;;
16478;SDS011;8350;52.316;10.530;2022-10-23T00:53:57;7.60;;;5.90;;
16478;SDS011;8350;52.316;10.530;2022-10-23T00:56:26;8.50;;;6.13;;
16478;SDS011;8350;52.316;10.530;2022-10-23T00:58:53;9.07;;;6.40;;
16478;SDS011;8350;52.316;10.530;2022-10-23T01:01:22;10.40;;;5.90;;
16478;SDS011;8350;52.316;10.530;2022-10-23T01:03:49;8.95;;;6.15;;
16478;SDS011;8350;52.316;10.530;2022-10-23T01:06:19;6.63;;;6.03;;
16478;SDS011;8350;52.316;10.530;2022-10-23T01:08:59;8.00;;;5.72;;
16478;SDS011;8350;52.316;10.530;2022-10-23T01:11:31;7.45;;;5.90;;
16478;SDS011;8350;52.316;10.530;2022-10-23T01:14:05;9.07;;;6.50;;
16478;SDS011;8350;52.316;10.530;2022-10-23T01:16:41;8.40;;;6.25;;
16478;SDS011;8350;52.316;10.530;2022-10-23T01:19:15;8.68;;;5.85;;
16478;SDS011;8350;52.316;10.530;2022-10-23T01:21:49;7.88;;;6.07;;
16478;SDS011;8350;52.316;10.530;2022-10-23T01:24:29;10.07;;;6.07;;
16478;SDS011;8350;52.316;10.530;2022-10-23T01:27:14;8.18;;;6.05;;
16478;SDS011;8350;52.316;10.530;2022-10-23T01:29:50;7.25;;;6.32;;
16478;SDS011;8350;52.316;10.530;2022-10-23T01:32:29;11.27;;;6.75;;
16478;SDS011;8350;52.316;10.530;2022-10-23T01:35:01;7.30;;;6.60;;
16478;SDS011;8350;52.316;10.530;2022-10-23T01:37:33;12.23;;;6.63;;
16478;SDS011;8350;52.316;10.530;2022-10-23T01:40:08;6.85;;;5.78;;
16478;SDS011;8350;52.316;10.530;2022-10-23T01:42:43;6.22;;;5.70;;
16478;SDS011;8350;52.316;10.530;2022-10-23T01:45:15;7.95;;;5.63;;
16478;SDS011;8350;52.316;10.530;2022-10-23T01:47:46;8.70;;;6.95;;
16478;SDS011;8350;52.316;10.530;2022-10-23T01:50:16;8.10;;;6.38;;
16478;SDS011;8350;52.316;10.530;2022-10-23T01:52:45;7.50;;;6.32;;
16478;SDS011;8350;52.316;10.530;2022-10-23T01:55:12;7.90;;;6.45;;
16478;SDS011;8350;52.316;10.530;2022-10-23T01:57:42;7.20;;;6.28;;
16478;SDS011;8350;52.316;10.530;2022-10-23T02:00:12;9.02;;;6.25;;
16478;SDS011;8350;52.316;10.530;2022-10-23T02:02:43;8.18;;;6.45;;
16478;SDS011;8350;52.316;10.530;2022-10-23T02:05:13;8.82;;;6.38;;
16478;SDS011;8350;52.316;10.530;2022-10-23T02:07:43;9.40;;;6.53;;
16478;SDS011;8350;52.316;10.530;2022-10-23T02:10:12;7.90;;;6.15;;
16478;SDS011;8350;52.316;10.530;2022-10-23T02:12:45;9.05;;;6.53;;
16478;SDS011;8350;52.316;10.530;2022-10-23T02:15:18;7.20;;;6.20;;
16478;SDS011;8350;52.316;10.530;2022-10-23T02:17:49;8.13;;;6.03;;
16478;SDS011;8350;52.316;10.530;2022-10-23T02:20:25;8.43;;;6.18;;
16478;SDS011;8350;52.316;10.530;2022-10-23T02:22:57;6.88;;;6.28;;
16478;SDS011;8350;52.316;10.530;2022-10-23T02:25:30;7.07;;;5.78;;
16478;SDS011;8350;52.316;10.530;2022-10-23T02:28:03;6.10;;;5.40;;
16478;SDS011;8350;52.316;10.530;2022-10-23T02:30:34;9.20;;;5.75;;
16478;SDS011;8350;52.316;10.530;2022-10-23T02:33:03;7.03;;;5.22;;
16478;SDS011;8350;52.316;10.530;2022-10-23T02:35:32;7.65;;;4.82;;
16478;SDS011;8350;52.316;10.530;2022-10-23T02:37:59;8.38;;;5.97;;
16478;SDS011;8350;52.316;10.530;2022-10-23T02:40:29;6.20;;;5.55;;
16478;SDS011;8350;52.316;10.530;2022-10-23T02:43:02;10.02;;;6.13;;
16478;SDS011;8350;52.316;10.530;2022-10-23T02:45:38;9.90;;;5.65;;
16478;SDS011;8350;52.316;10.530;2022-10-23T02:48:11;8.88;;;5.65;;
16478;SDS011;8350;52.316;10.530;2022-10-23T02:50:47;8.18;;;5.85;;
16478;SDS011;8350;52.316;10.530;2022-10-23T02:53:18;7.80;;;5.05;;
16478;SDS011;8350;52.316;10.530;2022-10-23T02:55:53;9.20;;;5.53;;
16478;SDS011;8350;52.316;10.530;2022-10-23T02:58:29;9.95;;;5.38;;
16478;SDS011;8350;52.316;10.530;2022-10-23T03:01:03;7.28;;;5.55;;
16478;SDS011;8350;52.316;10.530;2022-10-23T03:03:35;11.20;;;6.22;;
16478;SDS011;8350;52.316;10.530;2022-10-23T03:06:07;8.48;;;6.03;;
16478;SDS011;8350;52.316;10.530;2022-10-23T03:08:41;8.73;;;5.80;;
16478;SDS011;8350;52.316;10.530;2022-10-23T03:11:10;9.27;;;5.63;;
16478;SDS011;8350;52.316;10.530;2022-10-23T03:13:38;7.88;;;5.20;;
16478;SDS011;8350;52.316;10.530;2022-10-23T03:16:06;8.65;;;5.32;;
16478;SDS011;8350;52.316;10.530;2022-10-23T03:18:33;6.88;;;5.68;;
16478;SDS011;8350;52.316;10.530;2022-10-23T03:21:00;5.53;;;4.90;;
16478;SDS011;8350;52.316;10.530;2022-10-23T03:23:27;7.50;;;5.38;;
16478;SDS011;8350;52.316;10.530;2022-10-23T03:25:54;8.43;;;5.22;;
16478;SDS011;8350;52.316;10.530;2022-10-23T03:28:21;6.35;;;5.68;;
16478;SDS011;8350;52.316;10.530;2022-10-23T03:30:52;7.07;;;5.82;;
16478;SDS011;8350;52.316;10.530;2022-10-23T03:33:20;8.40;;;5.30;;
16478;SDS011;8350;52.316;10.530;2022-10-23T03:35:47;9.68;;;5.40;;
16478;SDS011;8350;52.316;10.530;2022-10-23T03:38:14;7.90;;;5.57;;
16478;SDS011;8350;52.316;10.530;2022-10-23T03:40:42;9.80;;;5.70;;
16478;SDS011;8350;52.316;10.530;2022-10-23T03:43:09;8.32;;;5.55;;
16478;SDS011;8350;52.316;10.530;2022-10-23T03:45:36;8.40;;;5.43;;
16478;SDS011;8350;52.316;10.530;2022-10-23T03:48:05;6.57;;;5.45;;
16478;SDS011;8350;52.316;10.530;2022-10-23T03:50:33;7.68;;;5.28;;
16478;SDS011;8350;52.316;10.530;2022-10-23T03:53:00;7.40;;;5.72;;
16478;SDS011;8350;52.316;10.530;2022-10-23T03:55:28;7.25;;;5.18;;
16478;SDS011;8350;52.316;10.530;2022-10-23T03:57:55;8.48;;;6.30;;
16478;SDS011;8350;52.316;10.530;2022-10-23T04:00:25;8.50;;;5.50;;
16478;SDS011;8350;52.316;10.530;2022-10-23T04:02:52;10.85;;;5.30;;
16478;SDS011;8350;52.316;10.530;2022-10-23T04:05:20;10.52;;;4.97;;
16478;SDS011;8350;52.316;10.530;2022-10-23T04:07:48;7.15;;;4.75;;
16478;SDS011;8350;52.316;10.530;2022-10-23T04:10:15;7.47;;;5.20;;
16478;SDS011;8350;52.316;10.530;2022-10-23T04:12:43;8.82;;;5.07;;
16478;SDS011;8350;52.316;10.530;2022-10-23T04:15:10;7.18;;;5.28;;
16478;SDS011;8350;52.316;10.530;2022-10-23T04:17:37;5.07;;;4.57;;
16478;SDS011;8350;52.316;10.530;2022-10-23T04:20:04;6.03;;;5.28;;
16478;SDS011;8350;52.316;10.530;2022-10-23T04:22:33;6.18;;;4.70;;
16478;SDS011;8350;52.316;10.530;2022-10-23T04:25:00;5.85;;;4.82;;
16478;SDS011;8350;52.316;10.530;2022-10-23T04:27:27;5.97;;;4.55;;
16478;SDS011;8350;52.316;10.530;2022-10-23T04:29:54;4.65;;;4.18;;
16478;SDS011;8350;52.316;10.530;2022-10-23T04:32:21;4.38;;;3.95;;
16478;SDS011;8350;52.316;10.530;2022-10-23T04:34:49;5.13;;;4.18;;
16478;SDS011;8350;52.316;10.530;2022-10-23T04:37:16;7.68;;;4.50;;
16478;SDS011;8350;52.316;10.530;2022-10-23T04:39:45;5.22;;;3.58;;
16478;SDS011;8350;52.316;10.530;2022-10-23T04:42:12;9.15;;;4.68;;
16478;SDS011;8350;52.316;10.530;2022-10-23T04:44:39;7.35;;;4.60;;
16478;SDS011;8350;52.316;10.530;2022-10-23T04:47:06;5.57;;;4.65;;
16478;SDS011;8350;52.316;10.530;2022-10-23T04:49:33;6.63;;;4.03;;
16478;SDS011;8350;52.316;10.530;2022-10-23T04:52:00;7.68;;;5.18;;
16478;SDS011;8350;52.316;10.530;2022-10-23T04:54:27;6.10;;;4.55;;
16478;SDS011;8350;52.316;10.530;2022-10-23T04:56:56;5.60;;;4.68;;
16478;SDS011;8350;52.316;10.530;2022-10-23T04:59:23;7.80;;;4.85;;
16478;SDS011;8350;52.316;10.530;2022-10-23T05:01:51;7.22;;;4.25;;
16478;SDS011;8350;52.316;10.530;2022-10-23T05:04:18;5.35;;;4.25;;
16478;SDS011;8350;52.316;10.530;2022-10-23T05:06:45;6.88;;;4.32;;
16478;SDS011;8350;52.316;10.530;2022-10-23T05:09:12;6.18;;;4.45;;
16478;SDS011;8350;52.316;10.530;2022-10-23T05:11:39;6.63;;;4.03;;
16478;SDS011;8350;52.316;10.530;2022-10-23T05:14:08;5.93;;;4.70;;
16478;SDS011;8350;52.316;10.530;2022-10-23T05:16:36;4.88;;;3.92;;
16478;SDS011;8350;52.316;10.530;2022-10-23T05:19:07;6.65;;;4.18;;
16478;SDS011;8350;52.316;10.530;2022-10-23T05:21:36;5.10;;;4.00;;
16478;SDS011;8350;52.316;10.530;2022-10-23T05:24:05;10.05;;;3.92;;
16478;SDS011;8350;52.316;10.530;2022-10-23T05:26:32;5.93;;;3.90;;
16478;SDS011;8350;52.316;10.530;2022-10-23T05:28:59;4.93;;;3.35;;
16478;SDS011;8350;52.316;10.530;2022-10-23T05:31:27;7.35;;;4.00;;
16478;SDS011;8350;52.316;10.530;2022-10-23T05:33:55;4.78;;;3.85;;
16478;SDS011;8350;52.316;10.530;2022-10-23T05:36:22;6.65;;;4.88;;
16478;SDS011;8350;52.316;10.530;2022-10-23T05:38:50;6.95;;;4.13;;
16478;SDS011;8350;52.316;10.530;2022-10-23T05:41:18;5.05;;;4.30;;
16478;SDS011;8350;52.316;10.530;2022-10-23T05:43:47;6.10;;;4.53;;
16478;SDS011;8350;52.316;10.530;2022-10-23T05:46:16;4.47;;;4.00;;
16478;SDS011;8350;52.316;10.530;2022-10-23T05:48:45;8.20;;;4.18;;
16478;SDS011;8350;52.316;10.530;2022-10-23T05:51:15;6.63;;;4.07;;
16478;SDS011;8350;52.316;10.530;2022-10-23T05:53:46;7.18;;;4.60;;
16478;SDS011;8350;52.316;10.530;2022-10-23T05:56:13;4.85;;;4.22;;
16478;SDS011;8350;52.316;10.530;2022-10-23T05:58:40;4.30;;;3.90;;
16478;SDS011;8350;52.316;10.530;2022-10-23T06:01:07;5.72;;;4.10;;
16478;SDS011;8350;52.316;10.530;2022-10-23T06:03:36;6.20;;;4.20;;
16478;SDS011;8350;52.316;10.530;2022-10-23T06:06:05;3.97;;;3.58;;
16478;SDS011;8350;52.316;10.530;2022-10-23T06:08:33;8.10;;;4.00;;
16478;SDS011;8350;52.316;10.530;2022-10-23T06:11:04;7.60;;;4.32;;
16478;SDS011;8350;52.316;10.530;2022-10-23T06:13:32;6.85;;;3.75;;
16478;SDS011;8350;52.316;10.530;2022-10-23T06:16:06;4.80;;;3.67;;
16478;SDS011;8350;52.316;10.530;2022-10-23T06:18:34;7.13;;;4.03;;
16478;SDS011;8350;52.316;10.530;2022-10-23T06:21:01;4.20;;;3.80;;
16478;SDS011;8350;52.316;10.530;2022-10-23T06:23:31;5.22;;;3.55;;
16478;SDS011;8350;52.316;10.530;2022-10-23T06:26:00;7.22;;;4.20;;
16478;SDS011;8350;52.316;10.530;2022-10-23T06:28:27;4.80;;;3.75;;
16478;SDS011;8350;52.316;10.530;2022-10-23T06:30:54;5.90;;;4.22;;
16478;SDS011;8350;52.316;10.530;2022-10-23T06:33:21;4.65;;;4.05;;
16478;SDS011;8350;52.316;10.530;2022-10-23T06:35:48;5.47;;;4.57;;
16478;SDS011;8350;52.316;10.530;2022-10-23T06:38:15;5.47;;;3.92;;
16478;SDS011;8350;52.316;10.530;2022-10-23T06:40:44;7.75;;;4.28;;
16478;SDS011;8350;52.316;10.530;2022-10-23T06:43:18;9.68;;;4.15;;
16478;SDS011;8350;52.316;10.530;2022-10-23T06:45:45;5.72;;;4.20;;
16478;SDS011;8350;52.316;10.530;2022-10-23T06:48:13;7.43;;;3.65;;
16478;SDS011;8350;52.316;10.530;2022-10-23T06:50:40;6.55;;;4.05;;
16478;SDS011;8350;52.316;10.530;2022-10-23T06:53:10;5.72;;;3.95;;
16478;SDS011;8350;52.316;10.530;2022-10-23T06:55:38;5.32;;;4.00;;
16478;SDS011;8350;52.316;10.530;2022-10-23T06:58:07;7.15;;;3.80;;
16478;SDS011;8350;52.316;10.530;2022-10-23T07:00:36;4.45;;;3.88;;
16478;SDS011;8350;52.316;10.530;2022-10-23T07:03:04;4.82;;;4.07;;
16478;SDS011;8350;52.316;10.530;2022-10-23T07:05:32;5.25;;;4.10;;
16478;SDS011;8350;52.316;10.530;2022-10-23T07:08:00;7.53;;;4.22;;
16478;SDS011;8350;52.316;10.530;2022-10-23T07:10:27;5.68;;;4.38;;
16478;SDS011;8350;52.316;10.530;2022-10-23T07:12:54;5.10;;;4.32;;
16478;SDS011;8350;52.316;10.530;2022-10-23T07:15:26;7.47;;;4.07;;
16478;SDS011;8350;52.316;10.530;2022-10-23T07:17:53;5.85;;;5.25;;
16478;SDS011;8350;52.316;10.530;2022-10-23T07:20:20;4.82;;;4.03;;
16478;SDS011;8350;52.316;10.530;2022-10-23T07:22:49;7.03;;;4.20;;
16478;SDS011;8350;52.316;10.530;2022-10-23T07:25:17;7.90;;;4.28;;
16478;SDS011;8350;52.316;10.530;2022-10-23T07:27:44;7.53;;;4.00;;
16478;SDS011;8350;52.316;10.530;2022-10-23T07:30:12;5.20;;;4.43;;
16478;SDS011;8350;52.316;10.530;2022-10-23T07:32:41;8.07;;;4.93;;
16478;SDS011;8350;52.316;10.530;2022-10-23T07:35:09;7.28;;;4.32;;
16478;SDS011;8350;52.316;10.530;2022-10-23T07:37:37;8.15;;;4.15;;
16478;SDS011;8350;52.316;10.530;2022-10-23T07:40:08;4.43;;;3.72;;
16478;SDS011;8350;52.316;10.530;2022-10-23T07:42:37;5.15;;;4.03;;
16478;SDS011;8350;52.316;10.530;2022-10-23T07:45:05;4.60;;;4.13;;
16478;SDS011;8350;52.316;10.530;2022-10-23T07:47:33;11.13;;;4.13;;
16478;SDS011;8350;52.316;10.530;2022-10-23T07:50:04;6.18;;;3.97;;
16478;SDS011;8350;52.316;10.530;2022-10-23T07:52:33;7.55;;;4.03;;
16478;SDS011;8350;52.316;10.530;2022-10-23T07:55:01;5.40;;;3.50;;
16478;SDS011;8350;52.316;10.530;2022-10-23T07:57:28;9.40;;;3.83;;
16478;SDS011;8350;52.316;10.530;2022-10-23T07:59:55;5.43;;;3.60;;
16478;SDS011;8350;52.316;10.530;2022-10-23T08:02:22;7.18;;;3.53;;
16478;SDS011;8350;52.316;10.530;2022-10-23T08:04:49;6.28;;;3.63;;
16478;SDS011;8350;52.316;10.530;2022-10-23T08:07:18;5.05;;;3.45;;
16478;SDS011;8350;52.316;10.530;2022-10-23T08:09:45;8.57;;;3.40;;
16478;SDS011;8350;52.316;10.530;2022-10-23T08:12:12;6.30;;;3.75;;
16478;SDS011;8350;52.316;10.530;2022-10-23T08:14:39;5.22;;;3.28;;
16478;SDS011;8350;52.316;10.530;2022-10-23T08:17:06;4.03;;;3.65;;
16478;SDS011;8350;52.316;10.530;2022-10-23T08:19:34;6.32;;;3.15;;
16478;SDS011;8350;52.316;10.530;2022-10-23T08:22:01;3.55;;;3.15;;
16478;SDS011;8350;52.316;10.530;2022-10-23T08:24:30;6.18;;;3.10;;
16478;SDS011;8350;52.316;10.530;2022-10-23T08:26:57;3.83;;;2.95;;
16478;SDS011;8350;52.316;10.530;2022-10-23T08:29:24;5.93;;;3.28;;
16478;SDS011;8350;52.316;10.530;2022-10-23T08:31:51;4.70;;;3.20;;
16478;SDS011;8350;52.316;10.530;2022-10-23T08:34:20;4.45;;;3.67;;
16478;SDS011;8350;52.316;10.530;2022-10-23T08:36:47;3.70;;;3.40;;
16478;SDS011;8350;52.316;10.530;2022-10-23T08:39:14;5.00;;;3.58;;
16478;SDS011;8350;52.316;10.530;2022-10-23T08:41:45;4.60;;;3.03;;
16478;SDS011;8350;52.316;10.530;2022-10-23T08:44:17;4.55;;;3.30;;
16478;SDS011;8350;52.316;10.530;2022-10-23T08:46:49;7.90;;;3.38;;
16478;SDS011;8350;52.316;10.530;2022-10-23T08:49:27;4.30;;;2.80;;
16478;SDS011;8350;52.316;10.530;2022-10-23T08:52:01;5.97;;;3.00;;
16478;SDS011;8350;52.316;10.530;2022-10-23T08:54:39;5.05;;;2.75;;
16478;SDS011;8350;52.316;10.530;2022-10-23T08:57:25;6.45;;;2.50;;
16478;SDS011;8350;52.316;10.530;2022-10-23T08:59:59;4.88;;;3.13;;
16478;SDS011;8350;52.316;10.530;2022-10-23T09:02:30;6.05;;;2.97;;
16478;SDS011;8350;52.316;10.530;2022-10-23T09:05:01;6.80;;;2.85;;
16478;SDS011;8350;52.316;10.530;2022-10-23T09:07:35;3.97;;;2.95;;
16478;SDS011;8350;52.316;10.530;2022-10-23T09:10:15;6.40;;;3.10;;
16478;SDS011;8350;52.316;10.530;2022-10-23T09:12:57;6.25;;;2.75;;
16478;SDS011;8350;52.316;10.530;2022-10-23T09:15:38;9.70;;;3.17;;
16478;SDS011;8350;52.316;10.530;2022-10-23T09:18:10;3.38;;;2.63;;
16478;SDS011;8350;52.316;10.530;2022-10-23T09:20:40;6.65;;;2.92;;
16478;SDS011;8350;52.316;10.530;2022-10-23T09:23:13;3.60;;;2.60;;
16478;SDS011;8350;52.316;10.530;2022-10-23T09:25:44;4.35;;;2.50;;
16478;SDS011;8350;52.316;10.530;2022-10-23T09:28:17;6.05;;;2.35;;
16478;SDS011;8350;52.316;10.530;2022-10-23T09:30:51;4.38;;;2.60;;
16478;SDS011;8350;52.316;10.530;2022-10-23T09:33:20;5.65;;;2.80;;
16478;SDS011;8350;52.316;10.530;2022-10-23T09:35:53;5.25;;;2.45;;
16478;SDS011;8350;52.316;10.530;2022-10-23T09:38:33;3.75;;;3.03;;
16478;SDS011;8350;52.316;10.530;2022-10-23T09:41:05;5.38;;;3.05;;
16478;SDS011;8350;52.316;10.530;2022-10-23T09:43:40;3.92;;;2.45;;
16478;SDS011;8350;52.316;10.530;2022-10-23T09:46:08;6.03;;;2.90;;
16478;SDS011;8350;52.316;10.530;2022-10-23T09:48:38;5.03;;;2.97;;
16478;SDS011;8350;52.316;10.530;2022-10-23T09:51:14;5.72;;;2.60;;
16478;SDS011;8350;52.316;10.530;2022-10-23T09:53:49;3.88;;;2.22;;
16478;SDS011;8350;52.316;10.530;2022-10-23T09:56:25;7.90;;;2.50;;
16478;SDS011;8350;52.316;10.530;2022-10-23T09:58:58;4.50;;;2.35;;
16478;SDS011;8350;52.316;10.530;2022-10-23T10:01:29;3.65;;;2.30;;
16478;SDS011;8350;52.316;10.530;2022-10-23T10:04:00;4.47;;;2.08;;
16478;SDS011;8350;52.316;10.530;2022-10-23T10:06:29;6.18;;;1.73;;
16478;SDS011;8350;52.316;10.530;2022-10-23T10:08:58;3.70;;;1.83;;
16478;SDS011;8350;52.316;10.530;2022-10-23T10:11:30;3.63;;;2.25;;
16478;SDS011;8350;52.316;10.530;2022-10-23T10:16:57;5.70;;;2.00;;
16478;SDS011;8350;52.316;10.530;2022-10-23T10:19:35;6.57;;;2.53;;
16478;SDS011;8350;52.316;10.530;2022-10-23T10:22:15;2.72;;;2.15;;
16478;SDS011;8350;52.316;10.530;2022-10-23T10:24:51;5.32;;;2.38;;
16478;SDS011;8350;52.316;10.530;2022-10-23T10:27:41;4.38;;;2.10;;
16478;SDS011;8350;52.316;10.530;2022-10-23T10:30:19;3.40;;;2.10;;
16478;SDS011;8350;52.316;10.530;2022-10-23T10:32:49;5.32;;;2.28;;
16478;SDS011;8350;52.316;10.530;2022-10-23T10:35:34;3.50;;;1.95;;
16478;SDS011;8350;52.316;10.530;2022-10-23T10:38:12;2.75;;;1.95;;
16478;SDS011;8350;52.316;10.530;2022-10-23T10:44:03;5.93;;;2.30;;
16478;SDS011;8350;52.316;10.530;2022-10-23T10:46:50;4.43;;;2.50;;
16478;SDS011;8350;52.316;10.530;2022-10-23T10:49:26;4.40;;;2.30;;
16478;SDS011;8350;52.316;10.530;2022-10-23T10:52:00;3.35;;;2.20;;
16478;SDS011;8350;52.316;10.530;2022-10-23T10:54:41;2.92;;;1.65;;
16478;SDS011;8350;52.316;10.530;2022-10-23T10:57:19;5.70;;;1.92;;
16478;SDS011;8350;52.316;10.530;2022-10-23T10:59:57;3.47;;;2.33;;
16478;SDS011;8350;52.316;10.530;2022-10-23T11:02:32;5.22;;;1.55;;
16478;SDS011;8350;52.316;10.530;2022-10-23T11:05:10;3.25;;;1.77;;
16478;SDS011;8350;52.316;10.530;2022-10-23T11:07:56;6.60;;;2.55;;
16478;SDS011;8350;52.316;10.530;2022-10-23T11:10:28;3.70;;;2.13;;
16478;SDS011;8350;52.316;10.530;2022-10-23T11:12:56;4.03;;;1.80;;
16478;SDS011;8350;52.316;10.530;2022-10-23T11:15:27;5.65;;;2.45;;
16478;SDS011;8350;52.316;10.530;2022-10-23T11:18:11;4.97;;;1.80;;
16478;SDS011;8350;52.316;10.530;2022-10-23T11:20:48;5.55;;;2.08;;
16478;SDS011;8350;52.316;10.530;2022-10-23T11:23:30;3.83;;;1.60;;
16478;SDS011;8350;52.316;10.530;2022-10-23T11:26:16;3.00;;;1.80;;
16478;SDS011;8350;52.316;10.530;2022-10-23T11:29:02;3.70;;;1.63;;
16478;SDS011;8350;52.316;10.530;2022-10-23T11:31:53;3.67;;;2.00;;
16478;SDS011;8350;52.316;10.530;2022-10-23T11:34:40;3.88;;;1.65;;
16478;SDS011;8350;52.316;10.530;2022-10-23T11:37:17;2.53;;;1.58;;
16478;SDS011;8350;52.316;10.530;2022-10-23T11:39:55;2.40;;;1.30;;
16478;SDS011;8350;52.316;10.530;2022-10-23T11:42:31;3.40;;;1.60;;
16478;SDS011;8350;52.316;10.530;2022-10-23T11:45:00;3.35;;;1.42;;
16478;SDS011;8350;52.316;10.530;2022-10-23T11:47:28;2.42;;;1.50;;
16478;SDS011;8350;52.316;10.530;2022-10-23T11:52:56;4.90;;;1.60;;
16478;SDS011;8350;52.316;10.530;2022-10-23T11:55:29;3.47;;;1.20;;
16478;SDS011;8350;52.316;10.530;2022-10-23T11:58:13;1.38;;;1.27;;
16478;SDS011;8350;52.316;10.530;2022-10-23T12:00:51;3.92;;;1.10;;
16478;SDS011;8350;52.316;10.530;2022-10-23T12:03:21;2.72;;;1.42;;
16478;SDS011;8350;52.316;10.530;2022-10-23T12:06:01;2.25;;;1.30;;
16478;SDS011;8350;52.316;10.530;2022-10-23T12:08:30;3.03;;;1.17;;
16478;SDS011;8350;52.316;10.530;2022-10-23T12:11:00;1.33;;;1.02;;
16478;SDS011;8350;52.316;10.530;2022-10-23T12:13:29;2.75;;;1.23;;
16478;SDS011;8350;52.316;10.530;2022-10-23T12:16:12;4.45;;;1.40;;
16478;SDS011;8350;52.316;10.530;2022-10-23T12:18:45;3.38;;;1.40;;
16478;SDS011;8350;52.316;10.530;2022-10-23T12:21:17;4.30;;;1.20;;
16478;SDS011;8350;52.316;10.530;2022-10-23T12:23:51;5.97;;;1.80;;
16478;SDS011;8350;52.316;10.530;2022-10-23T12:26:40;2.63;;;1.13;;
16478;SDS011;8350;52.316;10.530;2022-10-23T12:29:23;2.75;;;1.30;;
16478;SDS011;8350;52.316;10.530;2022-10-23T12:32:07;1.42;;;0.98;;
16478;SDS011;8350;52.316;10.530;2022-10-23T12:34:55;3.08;;;1.30;;
16478;SDS011;8350;52.316;10.530;2022-10-23T12:37:43;1.15;;;0.95;;
16478;SDS011;8350;52.316;10.530;2022-10-23T12:40:20;3.20;;;1.45;;
16478;SDS011;8350;52.316;10.530;2022-10-23T12:42:53;2.25;;;1.15;;
16478;SDS011;8350;52.316;10.530;2022-10-23T12:45:23;2.50;;;1.45;;
16478;SDS011;8350;52.316;10.530;2022-10-23T12:47:51;3.80;;;1.08;;
16478;SDS011;8350;52.316;10.530;2022-10-23T12:50:20;1.98;;;1.20;;
16478;SDS011;8350;52.316;10.530;2022-10-23T12:52:54;3.08;;;1.20;;
16478;SDS011;8350;52.316;10.530;2022-10-23T12:55:23;3.97;;;1.55;;
16478;SDS011;8350;52.316;10.530;2022-10-23T12:57:52;1.85;;;0.98;;
16478;SDS011;8350;52.316;10.530;2022-10-23T13:00:20;1.52;;;1.20;;
16478;SDS011;8350;52.316;10.530;2022-10-23T13:02:56;3.35;;;1.63;;
16478;SDS011;8350;52.316;10.530;2022-10-23T13:05:24;2.60;;;1.20;;
16478;SDS011;8350;52.316;10.530;2022-10-23T13:07:53;4.53;;;1.38;;
16478;SDS011;8350;52.316;10.530;2022-10-23T13:10:22;2.83;;;1.00;;
16478;SDS011;8350;52.316;10.530;2022-10-23T13:12:52;1.73;;;1.08;;
16478;SDS011;8350;52.316;10.530;2022-10-23T13:15:21;3.08;;;1.20;;
16478;SDS011;8350;52.316;10.530;2022-10-23T13:18:00;4.07;;;1.27;;
16478;SDS011;8350;52.316;10.530;2022-10-23T13:20:31;4.70;;;1.17;;
16478;SDS011;8350;52.316;10.530;2022-10-23T13:23:09;3.90;;;1.30;;
16478;SDS011;8350;52.316;10.530;2022-10-23T13:25:50;2.97;;;1.13;;
16478;SDS011;8350;52.316;10.530;2022-10-23T13:28:22;1.40;;;1.00;;
16478;SDS011;8350;52.316;10.530;2022-10-23T13:31:00;2.15;;;0.90;;
16478;SDS011;8350;52.316;10.530;2022-10-23T13:33:31;4.88;;;1.20;;
16478;SDS011;8350;52.316;10.530;2022-10-23T13:36:01;3.38;;;1.50;;
16478;SDS011;8350;52.316;10.530;2022-10-23T13:38:32;2.42;;;1.00;;
16478;SDS011;8350;52.316;10.530;2022-10-23T13:41:04;2.28;;;1.10;;
16478;SDS011;8350;52.316;10.530;2022-10-23T13:43:36;4.55;;;1.20;;
16478;SDS011;8350;52.316;10.530;2022-10-23T13:46:04;2.38;;;0.93;;
16478;SDS011;8350;52.316;10.530;2022-10-23T13:48:31;3.55;;;1.10;;
16478;SDS011;8350;52.316;10.530;2022-10-23T13:51:00;3.10;;;0.93;;
16478;SDS011;8350;52.316;10.530;2022-10-23T13:53:38;3.70;;;1.30;;
16478;SDS011;8350;52.316;10.530;2022-10-23T13:56:05;6.50;;;1.63;;
16478;SDS011;8350;52.316;10.530;2022-10-23T13:58:34;3.08;;;0.98;;
16478;SDS011;8350;52.316;10.530;2022-10-23T14:01:03;1.25;;;0.80;;
16478;SDS011;8350;52.316;10.530;2022-10-23T14:03:31;2.30;;;1.20;;
16478;SDS011;8350;52.316;10.530;2022-10-23T14:05:58;2.58;;;1.13;;
16478;SDS011;8350;52.316;10.530;2022-10-23T14:08:25;5.30;;;1.13;;
16478;SDS011;8350;52.316;10.530;2022-10-23T14:10:54;2.70;;;1.02;;
16478;SDS011;8350;52.316;10.530;2022-10-23T14:13:20;2.25;;;0.77;;
16478;SDS011;8350;52.316;10.530;2022-10-23T14:15:51;2.65;;;1.05;;
16478;SDS011;8350;52.316;10.530;2022-10-23T14:18:18;1.60;;;1.10;;
16478;SDS011;8350;52.316;10.530;2022-10-23T14:20:46;2.53;;;1.15;;
16478;SDS011;8350;52.316;10.530;2022-10-23T14:23:13;2.28;;;1.15;;
16478;SDS011;8350;52.316;10.530;2022-10-23T14:25:40;1.75;;;0.98;;
16478;SDS011;8350;52.316;10.530;2022-10-23T14:28:08;3.70;;;1.33;;
16478;SDS011;8350;52.316;10.530;2022-10-23T14:30:36;3.20;;;1.38;;
16478;SDS011;8350;52.316;10.530;2022-10-23T14:33:03;2.63;;;1.10;;
16478;SDS011;8350;52.316;10.530;2022-10-23T14:35:30;1.50;;;1.00;;
16478;SDS011;8350;52.316;10.530;2022-10-23T14:37:57;3.72;;;1.30;;
16478;SDS011;8350;52.316;10.530;2022-10-23T14:40:24;2.67;;;0.98;;
16478;SDS011;8350;52.316;10.530;2022-10-23T14:42:51;1.85;;;1.17;;
16478;SDS011;8350;52.316;10.530;2022-10-23T14:45:20;1.10;;;1.00;;
16478;SDS011;8350;52.316;10.530;2022-10-23T14:47:47;2.13;;;1.02;;
16478;SDS011;8350;52.316;10.530;2022-10-23T14:50:14;1.80;;;1.23;;
16478;SDS011;8350;52.316;10.530;2022-10-23T14:52:41;1.70;;;1.20;;
16478;SDS011;8350;52.316;10.530;2022-10-23T14:55:08;3.17;;;1.10;;
16478;SDS011;8350;52.316;10.530;2022-10-23T14:57:35;2.63;;;1.50;;
16478;SDS011;8350;52.316;10.530;2022-10-23T15:00:02;6.05;;;2.92;;
16478;SDS011;8350;52.316;10.530;2022-10-23T15:02:32;2.40;;;1.35;;
16478;SDS011;8350;52.316;10.530;2022-10-23T15:04:59;3.90;;;1.60;;
16478;SDS011;8350;52.316;10.530;2022-10-23T15:07:26;2.05;;;1.00;;
16478;SDS011;8350;52.316;10.530;2022-10-23T15:09:53;5.80;;;1.00;;
16478;SDS011;8350;52.316;10.530;2022-10-23T15:12:21;3.08;;;1.20;;
16478;SDS011;8350;52.316;10.530;2022-10-23T15:14:48;3.47;;;1.00;;
16478;SDS011;8350;52.316;10.530;2022-10-23T15:17:15;1.73;;;1.00;;
16478;SDS011;8350;52.316;10.530;2022-10-23T15:19:44;5.18;;;1.17;;